createdAt,value
2022-12-29T00:00:12.898Z,0.00
2022-12-29T00:01:12.839Z,0.00
2022-12-29T00:02:12.730Z,0.00
2022-12-29T00:03:33.668Z,0.00
2022-12-29T00:04:15.015Z,0.00
2022-12-29T00:05:12.498Z,0.00
2022-12-29T00:06:12.390Z,0.00
2022-12-29T00:07:12.310Z,0.00
2022-12-29T00:08:12.225Z,0.00
2022-12-29T00:09:33.124Z,0.00
2022-12-29T00:10:12.060Z,0.00
2022-12-29T00:11:11.983Z,0.00
2022-12-29T00:12:11.884Z,0.00
2022-12-29T00:13:11.810Z,0.00
2022-12-29T00:14:11.731Z,0.00
2022-12-29T00:15:32.768Z,0.00
2022-12-29T00:16:11.588Z,0.00
2022-12-29T00:17:11.474Z,0.00
2022-12-29T00:18:11.397Z,0.00
2022-12-29T00:19:11.314Z,0.00
2022-12-29T00:20:11.223Z,0.00
2022-12-29T00:21:32.122Z,0.00
2022-12-29T00:22:11.066Z,0.00
2022-12-29T00:23:10.977Z,0.00
2022-12-29T00:24:10.891Z,0.00
2022-12-29T00:25:10.821Z,0.00
2022-12-29T00:26:10.721Z,0.00
2022-12-29T00:27:31.635Z,0.00
2022-12-29T00:28:10.569Z,0.00
2022-12-29T00:29:10.473Z,0.00
2022-12-29T00:30:10.393Z,0.00
2022-12-29T00:31:10.373Z,0.00
2022-12-29T00:32:10.243Z,0.00
2022-12-29T00:33:31.138Z,0.00
2022-12-29T00:34:10.071Z,0.00
2022-12-29T00:35:09.980Z,0.00
2022-12-29T00:36:09.895Z,0.00
2022-12-29T00:37:09.834Z,0.00
2022-12-29T00:38:09.743Z,0.00
2022-12-29T00:39:30.635Z,0.00
2022-12-29T00:40:09.564Z,0.00
2022-12-29T00:41:09.500Z,0.00
2022-12-29T00:42:09.410Z,0.00
2022-12-29T00:43:09.313Z,0.00
2022-12-29T00:44:09.232Z,0.00
2022-12-29T00:45:30.149Z,0.00
2022-12-29T00:46:12.899Z,0.00
2022-12-29T00:47:09.067Z,0.00
2022-12-29T00:48:08.917Z,0.00
2022-12-29T00:49:08.818Z,0.00
2022-12-29T00:50:08.763Z,0.00
2022-12-29T00:51:29.644Z,0.00
2022-12-29T00:52:08.596Z,0.00
2022-12-29T00:53:08.487Z,0.00
2022-12-29T00:54:08.399Z,0.00
2022-12-29T00:55:08.328Z,0.00
2022-12-29T00:56:08.246Z,0.00
2022-12-29T00:57:29.144Z,0.00
2022-12-29T00:58:08.091Z,0.00
2022-12-29T00:59:07.993Z,0.00
2022-12-29T01:00:07.908Z,0.00
2022-12-29T01:01:07.899Z,0.00
2022-12-29T01:02:07.840Z,0.00
2022-12-29T01:03:28.646Z,0.00
2022-12-29T01:04:07.591Z,0.00
2022-12-29T01:05:07.510Z,0.00
2022-12-29T01:06:07.415Z,0.00
2022-12-29T01:07:07.354Z,0.00
2022-12-29T01:08:07.323Z,0.00
2022-12-29T01:09:28.151Z,0.00
2022-12-29T01:10:07.076Z,0.00
2022-12-29T01:11:07.004Z,0.00
2022-12-29T01:12:06.919Z,0.00
2022-12-29T01:13:06.854Z,0.00
2022-12-29T01:14:06.745Z,0.00
2022-12-29T01:15:27.656Z,0.00
2022-12-29T01:16:06.659Z,0.00
2022-12-29T01:17:06.502Z,0.00
2022-12-29T01:18:06.445Z,0.00
2022-12-29T01:19:06.347Z,0.00
2022-12-29T01:20:06.252Z,0.00
2022-12-29T01:21:27.161Z,0.00
2022-12-29T01:22:06.105Z,0.00
2022-12-29T01:23:06.016Z,0.00
2022-12-29T01:24:05.920Z,0.00
2022-12-29T01:25:05.856Z,0.00
2022-12-29T01:26:05.764Z,0.00
2022-12-29T01:27:26.679Z,0.00
2022-12-29T01:28:05.607Z,0.00
2022-12-29T01:29:05.533Z,0.00
2022-12-29T01:30:05.426Z,0.00
2022-12-29T01:31:05.369Z,0.00
2022-12-29T01:32:05.302Z,0.00
2022-12-29T01:33:26.170Z,0.00
2022-12-29T01:34:05.110Z,0.00
2022-12-29T01:35:05.048Z,0.00
2022-12-29T01:36:04.938Z,0.00
2022-12-29T01:37:04.872Z,0.00
2022-12-29T01:38:04.767Z,0.00
2022-12-29T01:39:25.676Z,0.00
2022-12-29T01:40:04.618Z,0.00
2022-12-29T01:41:04.529Z,0.00
2022-12-29T01:42:04.455Z,0.00
2022-12-29T01:43:04.373Z,0.00
2022-12-29T01:44:04.283Z,0.00
2022-12-29T01:45:25.170Z,0.00
2022-12-29T01:46:04.126Z,0.00
2022-12-29T01:47:04.039Z,0.00
2022-12-29T01:48:03.964Z,0.00
2022-12-29T01:49:03.869Z,0.00
2022-12-29T01:50:03.825Z,0.00
2022-12-29T01:51:24.683Z,0.00
2022-12-29T01:52:03.621Z,0.00
2022-12-29T01:53:03.555Z,0.00
2022-12-29T01:54:03.457Z,0.00
2022-12-29T01:55:03.376Z,0.00
2022-12-29T01:56:03.278Z,0.00
2022-12-29T01:57:24.195Z,0.00
2022-12-29T01:58:03.148Z,0.00
2022-12-29T01:59:03.048Z,0.00
2022-12-29T02:00:02.978Z,0.00
2022-12-29T02:01:02.940Z,0.00
2022-12-29T02:02:02.857Z,0.00
2022-12-29T02:03:23.737Z,0.00
2022-12-29T02:04:02.644Z,0.00
2022-12-29T02:05:04.637Z,0.00
2022-12-29T02:06:02.462Z,0.00
2022-12-29T02:07:02.394Z,0.00
2022-12-29T02:08:02.293Z,0.00
2022-12-29T02:09:23.217Z,0.00
2022-12-29T02:10:02.139Z,0.00
2022-12-29T02:11:02.053Z,0.00
2022-12-29T02:12:01.971Z,0.00
2022-12-29T02:13:01.902Z,0.00
2022-12-29T02:14:03.753Z,0.00
2022-12-29T02:15:22.728Z,0.00
2022-12-29T02:16:01.687Z,0.00
2022-12-29T02:17:01.588Z,0.00
2022-12-29T02:18:01.474Z,0.00
2022-12-29T02:19:01.396Z,0.00
2022-12-29T02:20:01.321Z,0.00
2022-12-29T02:21:22.210Z,0.00
2022-12-29T02:22:01.143Z,0.00
2022-12-29T02:23:01.066Z,0.00
2022-12-29T02:24:00.988Z,0.00
2022-12-29T02:25:00.897Z,0.00
2022-12-29T02:26:00.821Z,0.00
2022-12-29T02:27:21.723Z,0.00
2022-12-29T02:28:00.665Z,0.00
2022-12-29T02:29:00.601Z,0.00
2022-12-29T02:30:00.490Z,0.00
2022-12-29T02:31:00.417Z,0.00
2022-12-29T02:32:00.438Z,0.00
2022-12-29T02:33:21.221Z,0.00
2022-12-29T02:34:00.175Z,0.00
2022-12-29T02:35:00.098Z,0.00
2022-12-29T02:36:00.006Z,0.00
2022-12-29T02:36:59.929Z,0.00
2022-12-29T02:37:59.832Z,0.00
2022-12-29T02:39:20.736Z,0.00
2022-12-29T02:39:59.661Z,0.00
2022-12-29T02:40:59.583Z,0.00
2022-12-29T02:41:59.502Z,0.00
2022-12-29T02:42:59.445Z,0.00
2022-12-29T02:43:59.329Z,0.00
2022-12-29T02:45:20.240Z,0.00
2022-12-29T02:45:59.228Z,0.00
2022-12-29T02:46:59.089Z,0.00
2022-12-29T02:47:59.014Z,0.00
2022-12-29T02:48:58.939Z,0.00
2022-12-29T02:49:58.859Z,0.00
2022-12-29T02:51:19.743Z,0.00
2022-12-29T02:51:58.690Z,0.00
2022-12-29T02:52:58.608Z,0.00
2022-12-29T02:53:58.532Z,0.00
2022-12-29T02:54:58.434Z,0.00
2022-12-29T02:55:58.357Z,0.00
2022-12-29T02:57:19.256Z,0.00
2022-12-29T02:57:58.188Z,0.00
2022-12-29T02:58:58.115Z,0.00
2022-12-29T02:59:58.034Z,0.00
2022-12-29T03:00:58.023Z,0.00
2022-12-29T03:01:57.966Z,0.00
2022-12-29T03:03:18.826Z,0.00
2022-12-29T03:03:57.689Z,0.00
2022-12-29T03:04:57.620Z,0.00
2022-12-29T03:05:57.532Z,0.00
2022-12-29T03:06:57.456Z,0.00
2022-12-29T03:07:57.371Z,0.00
2022-12-29T03:09:19.419Z,0.00
2022-12-29T03:09:57.206Z,0.00
2022-12-29T03:10:57.117Z,0.00
2022-12-29T03:11:57.043Z,0.00
2022-12-29T03:12:56.962Z,0.00
2022-12-29T03:13:56.880Z,0.00
2022-12-29T03:15:17.780Z,0.00
2022-12-29T03:15:56.738Z,0.00
2022-12-29T03:16:56.686Z,0.00
2022-12-29T03:17:56.552Z,0.00
2022-12-29T03:18:56.478Z,0.00
2022-12-29T03:19:56.377Z,0.00
2022-12-29T03:21:17.278Z,0.00
2022-12-29T03:21:56.210Z,0.00
2022-12-29T03:22:56.145Z,0.00
2022-12-29T03:23:56.063Z,0.00
2022-12-29T03:24:55.983Z,0.00
2022-12-29T03:25:55.882Z,0.00
2022-12-29T03:27:16.783Z,0.00
2022-12-29T03:27:55.719Z,0.00
2022-12-29T03:28:55.648Z,0.00
2022-12-29T03:29:55.577Z,0.00
2022-12-29T03:30:55.513Z,0.00
2022-12-29T03:31:55.407Z,0.00
2022-12-29T03:33:16.308Z,0.00
2022-12-29T03:33:55.246Z,0.00
2022-12-29T03:34:55.150Z,0.00
2022-12-29T03:35:55.067Z,0.00
2022-12-29T03:36:54.995Z,0.00
2022-12-29T03:37:54.937Z,0.00
2022-12-29T03:39:15.826Z,0.00
2022-12-29T03:39:54.748Z,0.00
2022-12-29T03:40:54.665Z,0.00
2022-12-29T03:41:54.580Z,0.00
2022-12-29T03:42:54.503Z,0.00
2022-12-29T03:43:54.409Z,0.00
2022-12-29T03:45:15.318Z,0.00
2022-12-29T03:45:54.300Z,0.00
2022-12-29T03:46:54.172Z,0.00
2022-12-29T03:47:54.081Z,0.00
2022-12-29T03:48:54.010Z,0.00
2022-12-29T03:49:53.955Z,0.00
2022-12-29T03:51:14.835Z,0.00
2022-12-29T03:51:53.771Z,0.00
2022-12-29T03:52:53.689Z,0.00
2022-12-29T03:53:53.606Z,0.00
2022-12-29T03:54:53.572Z,0.00
2022-12-29T03:55:53.433Z,0.00
2022-12-29T03:57:14.358Z,0.00
2022-12-29T03:57:53.263Z,0.00
2022-12-29T03:58:53.197Z,0.00
2022-12-29T03:59:53.107Z,0.00
2022-12-29T04:00:53.050Z,0.00
2022-12-29T04:01:53.008Z,0.00
2022-12-29T04:03:13.906Z,0.00
2022-12-29T04:03:52.804Z,0.00
2022-12-29T04:04:52.699Z,0.00
2022-12-29T04:05:52.619Z,0.00
2022-12-29T04:06:52.524Z,0.00
2022-12-29T04:07:52.453Z,0.00
2022-12-29T04:09:13.341Z,0.00
2022-12-29T04:09:52.306Z,0.00
2022-12-29T04:10:52.194Z,0.00
2022-12-29T04:11:52.118Z,0.00
2022-12-29T04:12:52.047Z,0.00
2022-12-29T04:13:51.954Z,0.00
2022-12-29T04:15:12.844Z,0.00
2022-12-29T04:15:51.876Z,0.00
2022-12-29T04:16:51.718Z,0.00
2022-12-29T04:17:51.635Z,0.00
2022-12-29T04:18:51.555Z,0.00
2022-12-29T04:19:51.481Z,0.00
2022-12-29T04:21:12.372Z,0.00
2022-12-29T04:21:51.314Z,0.00
2022-12-29T04:22:51.217Z,0.00
2022-12-29T04:23:51.147Z,0.00
2022-12-29T04:24:51.058Z,0.00
2022-12-29T04:25:50.995Z,0.00
2022-12-29T04:27:11.879Z,0.00
2022-12-29T04:27:50.806Z,0.00
2022-12-29T04:28:50.740Z,0.00
2022-12-29T04:29:50.667Z,0.00
2022-12-29T04:30:50.630Z,0.00
2022-12-29T04:31:50.493Z,0.00
2022-12-29T04:33:11.378Z,0.00
2022-12-29T04:33:50.319Z,0.00
2022-12-29T04:34:50.239Z,0.00
2022-12-29T04:35:50.165Z,0.00
2022-12-29T04:36:50.176Z,0.00
2022-12-29T04:37:50.011Z,0.00
2022-12-29T04:39:10.945Z,0.00
2022-12-29T04:39:49.836Z,0.00
2022-12-29T04:40:49.751Z,0.00
2022-12-29T04:41:49.660Z,0.00
2022-12-29T04:42:49.597Z,0.00
2022-12-29T04:43:49.504Z,0.00
2022-12-29T04:45:10.406Z,0.00
2022-12-29T04:45:49.336Z,0.00
2022-12-29T04:46:49.294Z,0.00
2022-12-29T04:47:49.176Z,0.00
2022-12-29T04:48:49.112Z,0.00
2022-12-29T04:49:49.034Z,0.00
2022-12-29T04:51:09.900Z,0.00
2022-12-29T04:51:48.865Z,0.00
2022-12-29T04:52:48.757Z,0.00
2022-12-29T04:53:48.685Z,0.00
2022-12-29T04:54:48.605Z,0.00
2022-12-29T04:55:48.512Z,0.00
2022-12-29T04:57:09.414Z,0.00
2022-12-29T04:57:48.357Z,0.00
2022-12-29T04:58:48.277Z,0.00
2022-12-29T04:59:48.203Z,0.00
2022-12-29T05:00:48.106Z,0.00
2022-12-29T05:01:48.091Z,0.00
2022-12-29T05:03:09.128Z,0.00
2022-12-29T05:03:47.901Z,0.00
2022-12-29T05:04:47.771Z,0.00
2022-12-29T05:05:47.706Z,0.00
2022-12-29T05:06:47.610Z,0.00
2022-12-29T05:07:47.535Z,0.00
2022-12-29T05:09:08.428Z,0.00
2022-12-29T05:09:47.478Z,0.00
2022-12-29T05:10:47.341Z,0.00
2022-12-29T05:11:47.199Z,0.00
2022-12-29T05:12:47.136Z,0.00
2022-12-29T05:13:47.050Z,0.00
2022-12-29T05:15:07.923Z,0.00
2022-12-29T05:15:46.900Z,0.00
2022-12-29T05:16:46.783Z,0.00
2022-12-29T05:17:46.717Z,0.00
2022-12-29T05:18:46.617Z,0.00
2022-12-29T05:19:46.552Z,0.00
2022-12-29T05:21:07.436Z,0.00
2022-12-29T05:21:46.389Z,0.00
2022-12-29T05:22:46.297Z,0.00
2022-12-29T05:23:46.215Z,0.00
2022-12-29T05:24:46.142Z,0.00
2022-12-29T05:25:46.070Z,0.00
2022-12-29T05:27:06.947Z,0.00
2022-12-29T05:27:45.889Z,0.00
2022-12-29T05:28:45.797Z,0.00
2022-12-29T05:29:45.725Z,0.00
2022-12-29T05:30:45.630Z,0.00
2022-12-29T05:31:45.594Z,0.00
2022-12-29T05:33:06.441Z,0.00
2022-12-29T05:33:45.381Z,0.00
2022-12-29T05:34:45.327Z,0.00
2022-12-29T05:35:45.220Z,0.00
2022-12-29T05:36:45.154Z,0.00
2022-12-29T05:37:45.058Z,0.00
2022-12-29T05:39:05.943Z,0.00
2022-12-29T05:39:44.890Z,0.00
2022-12-29T05:40:44.826Z,0.00
2022-12-29T05:41:44.745Z,0.00
2022-12-29T05:42:44.653Z,0.00
2022-12-29T05:43:44.572Z,0.00
2022-12-29T05:45:05.466Z,0.00
2022-12-29T05:45:44.410Z,0.00
2022-12-29T05:46:44.388Z,0.00
2022-12-29T05:47:44.233Z,0.00
2022-12-29T05:48:44.164Z,0.00
2022-12-29T05:49:44.090Z,0.00
2022-12-29T05:51:04.974Z,0.00
2022-12-29T05:51:43.910Z,0.00
2022-12-29T05:52:43.850Z,0.00
2022-12-29T05:53:43.747Z,0.00
2022-12-29T05:54:43.663Z,0.00
2022-12-29T05:55:46.941Z,0.00
2022-12-29T05:57:04.483Z,0.00
2022-12-29T05:57:43.420Z,0.00
2022-12-29T05:58:43.375Z,0.00
2022-12-29T05:59:43.254Z,0.00
2022-12-29T06:00:43.157Z,0.00
2022-12-29T06:01:43.209Z,0.00
2022-12-29T06:03:04.141Z,0.00
2022-12-29T06:03:48.006Z,0.00
2022-12-29T06:04:42.850Z,0.00
2022-12-29T06:05:42.755Z,0.00
2022-12-29T06:06:42.673Z,0.00
2022-12-29T06:07:42.595Z,0.00
2022-12-29T06:09:03.486Z,0.00
2022-12-29T06:09:42.429Z,0.00
2022-12-29T06:10:42.353Z,0.00
2022-12-29T06:11:42.259Z,0.00
2022-12-29T06:12:42.178Z,0.00
2022-12-29T06:13:42.107Z,0.00
2022-12-29T06:15:02.983Z,0.00
2022-12-29T06:15:41.933Z,0.00
2022-12-29T06:16:41.894Z,0.00
2022-12-29T06:17:41.781Z,0.00
2022-12-29T06:18:41.690Z,0.00
2022-12-29T06:19:41.613Z,0.00
2022-12-29T06:21:02.498Z,0.00
2022-12-29T06:21:41.465Z,0.00
2022-12-29T06:22:41.367Z,0.00
2022-12-29T06:23:41.283Z,0.00
2022-12-29T06:24:41.199Z,0.00
2022-12-29T06:25:41.118Z,0.00
2022-12-29T06:27:02.008Z,0.00
2022-12-29T06:27:40.957Z,0.00
2022-12-29T06:28:40.864Z,0.00
2022-12-29T06:29:40.795Z,0.00
2022-12-29T06:30:40.700Z,0.00
2022-12-29T06:31:40.646Z,0.00
2022-12-29T06:33:01.527Z,0.00
2022-12-29T06:33:40.474Z,0.00
2022-12-29T06:34:40.375Z,0.00
2022-12-29T06:35:40.339Z,0.00
2022-12-29T06:36:40.219Z,0.00
2022-12-29T06:37:40.207Z,0.00
2022-12-29T06:39:01.021Z,0.00
2022-12-29T06:39:40.954Z,0.00
2022-12-29T06:40:39.886Z,0.00
2022-12-29T06:41:39.793Z,0.00
2022-12-29T06:42:39.714Z,0.00
2022-12-29T06:43:39.657Z,0.00
2022-12-29T06:45:00.527Z,0.00
2022-12-29T06:45:39.478Z,0.00
2022-12-29T06:46:39.385Z,0.00
2022-12-29T06:47:39.315Z,4.00
2022-12-29T06:48:39.217Z,0.00
2022-12-29T06:49:39.138Z,0.00
2022-12-29T06:51:00.041Z,4.00
2022-12-29T06:51:38.983Z,0.00
2022-12-29T06:52:38.886Z,0.00
2022-12-29T06:53:38.824Z,0.00
2022-12-29T06:54:38.733Z,0.00
2022-12-29T06:55:38.640Z,4.00
2022-12-29T06:56:59.558Z,4.00
2022-12-29T06:57:38.532Z,4.00
2022-12-29T06:58:38.401Z,4.00
2022-12-29T06:59:38.314Z,8.00
2022-12-29T07:00:38.239Z,4.00
2022-12-29T07:01:38.302Z,8.00
2022-12-29T07:02:59.170Z,8.00
2022-12-29T07:03:38.045Z,4.00
2022-12-29T07:04:37.912Z,8.00
2022-12-29T07:05:37.827Z,8.00
2022-12-29T07:06:37.744Z,8.00
2022-12-29T07:07:37.653Z,12.00
2022-12-29T07:08:58.555Z,8.00
2022-12-29T07:09:37.493Z,8.00
2022-12-29T07:10:37.426Z,12.00
2022-12-29T07:11:37.332Z,12.00
2022-12-29T07:12:37.259Z,12.00
2022-12-29T07:13:37.168Z,12.00
2022-12-29T07:14:58.089Z,12.00
2022-12-29T07:15:37.007Z,16.00
2022-12-29T07:16:36.983Z,20.00
2022-12-29T07:17:36.842Z,20.00
2022-12-29T07:18:36.760Z,20.00
2022-12-29T07:19:36.675Z,24.00
2022-12-29T07:20:57.577Z,24.00
2022-12-29T07:21:36.513Z,24.00
2022-12-29T07:22:36.434Z,28.00
2022-12-29T07:23:36.340Z,28.00
2022-12-29T07:24:36.266Z,28.00
2022-12-29T07:25:36.178Z,28.00
2022-12-29T07:26:57.088Z,28.00
2022-12-29T07:27:36.007Z,32.00
2022-12-29T07:28:35.926Z,32.00
2022-12-29T07:29:35.844Z,32.00
2022-12-29T07:30:35.783Z,32.00
2022-12-29T07:31:35.704Z,32.00
2022-12-29T07:32:56.591Z,28.00
2022-12-29T07:33:35.543Z,32.00
2022-12-29T07:34:35.440Z,32.00
2022-12-29T07:35:35.379Z,32.00
2022-12-29T07:36:35.268Z,36.00
2022-12-29T07:37:35.192Z,44.00
2022-12-29T07:38:56.110Z,48.00
2022-12-29T07:39:35.038Z,56.00
2022-12-29T07:40:34.959Z,64.00
2022-12-29T07:41:34.863Z,60.00
2022-12-29T07:42:34.788Z,52.00
2022-12-29T07:43:34.709Z,48.00
2022-12-29T07:44:55.621Z,52.00
2022-12-29T07:45:34.540Z,52.00
2022-12-29T07:46:55.192Z,52.00
2022-12-29T07:47:34.368Z,52.00
2022-12-29T07:48:34.293Z,48.00
2022-12-29T07:49:34.208Z,52.00
2022-12-29T07:50:55.094Z,52.00
2022-12-29T07:51:34.066Z,56.00
2022-12-29T07:52:33.956Z,60.00
2022-12-29T07:53:33.888Z,68.00
2022-12-29T07:54:33.786Z,80.00
2022-12-29T07:55:33.718Z,88.00
2022-12-29T07:56:54.689Z,96.00
2022-12-29T07:57:33.561Z,104.00
2022-12-29T07:58:33.485Z,108.00
2022-12-29T07:59:33.401Z,120.00
2022-12-29T08:00:33.306Z,120.00
2022-12-29T08:01:33.306Z,124.00
2022-12-29T08:02:54.117Z,128.00
2022-12-29T08:03:33.132Z,132.00
2022-12-29T08:04:33.547Z,136.00
2022-12-29T08:05:32.892Z,136.00
2022-12-29T08:06:32.809Z,136.00
2022-12-29T08:07:32.732Z,132.00
2022-12-29T08:08:53.623Z,128.00
2022-12-29T08:09:32.723Z,116.00
2022-12-29T08:10:32.566Z,116.00
2022-12-29T08:11:32.405Z,132.00
2022-12-29T08:12:32.323Z,148.00
2022-12-29T08:13:32.227Z,164.00
2022-12-29T08:14:53.129Z,168.00
2022-12-29T08:15:32.638Z,168.00
2022-12-29T08:16:32.036Z,160.00
2022-12-29T08:17:31.918Z,160.00
2022-12-29T08:18:31.814Z,172.00
2022-12-29T08:19:31.741Z,172.00
2022-12-29T08:20:55.535Z,180.00
2022-12-29T08:21:31.584Z,196.00
2022-12-29T08:22:31.502Z,200.00
2022-12-29T08:23:31.444Z,200.00
2022-12-29T08:24:31.326Z,204.00
2022-12-29T08:25:31.252Z,212.00
2022-12-29T08:26:52.182Z,216.00
2022-12-29T08:27:31.095Z,220.00
2022-12-29T08:28:31.023Z,228.00
2022-12-29T08:29:30.913Z,236.00
2022-12-29T08:30:30.841Z,248.00
2022-12-29T08:31:32.039Z,248.00
2022-12-29T08:32:51.878Z,252.00
2022-12-29T08:33:30.775Z,256.00
2022-12-29T08:34:30.592Z,264.00
2022-12-29T08:35:30.474Z,268.00
2022-12-29T08:36:30.378Z,264.00
2022-12-29T08:37:31.381Z,284.00
2022-12-29T08:38:51.499Z,272.00
2022-12-29T08:39:30.582Z,264.00
2022-12-29T08:40:30.042Z,284.00
2022-12-29T08:41:29.958Z,272.00
2022-12-29T08:42:30.027Z,296.00
2022-12-29T08:43:29.832Z,320.00
2022-12-29T08:44:50.683Z,336.00
2022-12-29T08:45:29.614Z,340.00
2022-12-29T08:46:29.594Z,324.00
2022-12-29T08:47:29.467Z,320.00
2022-12-29T08:48:29.388Z,332.00
2022-12-29T08:49:29.291Z,352.00
2022-12-29T08:50:50.235Z,376.00
2022-12-29T08:51:29.196Z,388.00
2022-12-29T08:52:29.081Z,356.00
2022-12-29T08:53:28.953Z,332.00
2022-12-29T08:54:28.879Z,332.00
2022-12-29T08:55:28.785Z,348.00
2022-12-29T08:56:49.687Z,384.00
2022-12-29T08:57:28.632Z,420.00
2022-12-29T08:58:28.566Z,508.00
2022-12-29T08:59:28.503Z,536.00
2022-12-29T09:00:28.391Z,536.00
2022-12-29T09:01:28.358Z,588.00
2022-12-29T09:02:49.435Z,720.00
2022-12-29T09:04:28.254Z,576.00
2022-12-29T09:05:28.002Z,792.00
2022-12-29T09:06:27.903Z,600.00
2022-12-29T09:07:27.821Z,664.00
2022-12-29T09:08:48.747Z,568.00
2022-12-29T09:09:27.661Z,560.00
2022-12-29T09:10:27.596Z,1044.00
2022-12-29T09:11:27.509Z,524.00
2022-12-29T09:12:31.524Z,460.00
2022-12-29T09:13:27.335Z,432.00
2022-12-29T09:14:48.284Z,392.00
2022-12-29T09:15:27.162Z,364.00
2022-12-29T09:16:27.205Z,436.00
2022-12-29T09:17:27.030Z,520.00
2022-12-29T09:18:26.935Z,664.00
2022-12-29T09:19:26.850Z,948.00
2022-12-29T09:20:47.761Z,612.00
2022-12-29T09:21:26.678Z,500.00
2022-12-29T09:22:26.607Z,488.00
2022-12-29T09:23:26.531Z,488.00
2022-12-29T09:24:26.489Z,500.00
2022-12-29T09:25:26.351Z,492.00
2022-12-29T09:26:47.353Z,504.00
2022-12-29T09:27:26.183Z,512.00
2022-12-29T09:28:26.130Z,524.00
2022-12-29T09:29:26.043Z,572.00
2022-12-29T09:30:25.963Z,716.00
2022-12-29T09:31:25.885Z,696.00
2022-12-29T09:32:52.048Z,1320.00
2022-12-29T09:33:25.716Z,640.00
2022-12-29T09:34:25.622Z,520.00
2022-12-29T09:35:25.548Z,504.00
2022-12-29T09:36:25.474Z,668.00
2022-12-29T09:37:25.372Z,476.00
2022-12-29T09:38:46.331Z,460.00
2022-12-29T09:39:25.234Z,452.00
2022-12-29T09:40:25.141Z,416.00
2022-12-29T09:41:25.083Z,404.00
2022-12-29T09:42:24.993Z,404.00
2022-12-29T09:43:24.902Z,372.00
2022-12-29T09:44:45.812Z,368.00
2022-12-29T09:45:24.721Z,380.00
2022-12-29T09:46:24.734Z,404.00
2022-12-29T09:47:24.574Z,572.00
2022-12-29T09:48:24.483Z,540.00
2022-12-29T09:49:24.414Z,564.00
2022-12-29T09:50:45.310Z,428.00
2022-12-29T09:51:24.272Z,400.00
2022-12-29T09:52:24.175Z,368.00
2022-12-29T09:53:24.072Z,356.00
2022-12-29T09:54:24.003Z,352.00
2022-12-29T09:55:23.909Z,356.00
2022-12-29T09:56:44.820Z,356.00
2022-12-29T09:57:23.752Z,352.00
2022-12-29T09:58:23.711Z,352.00
2022-12-29T09:59:23.586Z,352.00
2022-12-29T10:00:23.531Z,344.00
2022-12-29T10:01:23.566Z,320.00
2022-12-29T10:02:44.441Z,296.00
2022-12-29T10:03:23.299Z,244.00
2022-12-29T10:04:23.193Z,208.00
2022-12-29T10:05:23.110Z,208.00
2022-12-29T10:06:23.045Z,236.00
2022-12-29T10:07:30.939Z,268.00
2022-12-29T10:08:43.854Z,324.00
2022-12-29T10:09:22.790Z,380.00
2022-12-29T10:10:22.722Z,424.00
2022-12-29T10:11:23.516Z,444.00
2022-12-29T10:12:22.551Z,428.00
2022-12-29T10:13:22.481Z,376.00
2022-12-29T10:14:43.375Z,320.00
2022-12-29T10:15:22.309Z,300.00
2022-12-29T10:16:22.268Z,300.00
2022-12-29T10:17:22.142Z,296.00
2022-12-29T10:18:22.072Z,292.00
2022-12-29T10:19:21.988Z,288.00
2022-12-29T10:20:42.874Z,280.00
2022-12-29T10:21:21.822Z,280.00
2022-12-29T10:22:21.745Z,272.00
2022-12-29T10:23:21.651Z,268.00
2022-12-29T10:24:21.591Z,256.00
2022-12-29T10:25:21.531Z,252.00
2022-12-29T10:26:42.391Z,252.00
2022-12-29T10:27:21.346Z,260.00
2022-12-29T10:28:21.262Z,284.00
2022-12-29T10:29:21.196Z,320.00
2022-12-29T10:30:21.094Z,392.00
2022-12-29T10:31:21.120Z,360.00
2022-12-29T10:32:41.913Z,344.00
2022-12-29T10:33:20.858Z,324.00
2022-12-29T10:34:20.775Z,296.00
2022-12-29T10:35:20.696Z,256.00
2022-12-29T10:36:20.618Z,220.00
2022-12-29T10:37:20.529Z,204.00
2022-12-29T10:38:41.444Z,188.00
2022-12-29T10:39:20.366Z,180.00
2022-12-29T10:40:20.295Z,164.00
2022-12-29T10:41:20.213Z,148.00
2022-12-29T10:42:20.123Z,144.00
2022-12-29T10:43:21.347Z,140.00
2022-12-29T10:44:40.955Z,132.00
2022-12-29T10:45:19.910Z,132.00
2022-12-29T10:46:19.861Z,132.00
2022-12-29T10:47:19.708Z,144.00
2022-12-29T10:48:19.647Z,152.00
2022-12-29T10:49:21.821Z,148.00
2022-12-29T10:50:40.518Z,140.00
2022-12-29T10:51:19.396Z,132.00
2022-12-29T10:52:19.316Z,128.00
2022-12-29T10:53:19.239Z,132.00
2022-12-29T10:54:19.156Z,124.00
2022-12-29T10:55:19.081Z,112.00
2022-12-29T10:56:39.980Z,108.00
2022-12-29T10:57:18.927Z,100.00
2022-12-29T10:58:18.842Z,100.00
2022-12-29T10:59:18.758Z,96.00
2022-12-29T11:00:18.697Z,100.00
2022-12-29T11:01:18.718Z,104.00
2022-12-29T11:02:39.650Z,104.00
2022-12-29T11:03:18.507Z,104.00
2022-12-29T11:04:18.357Z,108.00
2022-12-29T11:05:18.287Z,124.00
2022-12-29T11:06:18.199Z,156.00
2022-12-29T11:07:18.998Z,180.00
2022-12-29T11:08:39.041Z,188.00
2022-12-29T11:09:17.961Z,200.00
2022-12-29T11:10:17.872Z,220.00
2022-12-29T11:11:17.780Z,240.00
2022-12-29T11:12:17.728Z,264.00
2022-12-29T11:13:17.623Z,296.00
2022-12-29T11:14:38.587Z,404.00
2022-12-29T11:15:17.495Z,464.00
2022-12-29T11:16:17.499Z,464.00
2022-12-29T11:17:17.319Z,520.00
2022-12-29T11:18:17.232Z,556.00
2022-12-29T11:19:17.149Z,556.00
2022-12-29T11:20:38.065Z,552.00
2022-12-29T11:21:17.002Z,556.00
2022-12-29T11:22:16.915Z,564.00
2022-12-29T11:23:16.830Z,588.00
2022-12-29T11:24:16.784Z,616.00
2022-12-29T11:25:16.685Z,632.00
2022-12-29T11:26:37.584Z,640.00
2022-12-29T11:27:16.518Z,564.00
2022-12-29T11:28:16.443Z,504.00
2022-12-29T11:29:16.407Z,560.00
2022-12-29T11:30:16.361Z,532.00
2022-12-29T11:31:16.318Z,464.00
2022-12-29T11:32:37.093Z,452.00
2022-12-29T11:33:16.032Z,436.00
2022-12-29T11:34:15.959Z,432.00
2022-12-29T11:35:15.887Z,436.00
2022-12-29T11:36:15.806Z,444.00
2022-12-29T11:37:15.721Z,448.00
2022-12-29T11:38:36.621Z,452.00
2022-12-29T11:39:15.580Z,456.00
2022-12-29T11:40:15.599Z,472.00
2022-12-29T11:41:15.462Z,480.00
2022-12-29T11:42:15.378Z,496.00
2022-12-29T11:43:15.250Z,508.00
2022-12-29T11:44:36.143Z,516.00
2022-12-29T11:45:15.313Z,520.00
2022-12-29T11:46:15.045Z,532.00
2022-12-29T11:47:14.924Z,548.00
2022-12-29T11:48:14.842Z,560.00
2022-12-29T11:49:14.766Z,592.00
2022-12-29T11:50:35.674Z,552.00
2022-12-29T11:51:14.605Z,560.00
2022-12-29T11:52:14.519Z,532.00
2022-12-29T11:53:14.452Z,504.00
2022-12-29T11:54:14.408Z,536.00
2022-12-29T11:55:14.275Z,664.00
2022-12-29T11:56:40.190Z,656.00
2022-12-29T11:57:14.127Z,620.00
2022-12-29T11:58:14.049Z,628.00
2022-12-29T11:59:13.966Z,1004.00
2022-12-29T12:00:13.884Z,836.00
2022-12-29T12:01:13.800Z,656.00
2022-12-29T12:02:40.472Z,680.00
2022-12-29T12:03:13.720Z,724.00
2022-12-29T12:04:13.587Z,700.00
2022-12-29T12:05:13.483Z,824.00
2022-12-29T12:06:13.397Z,764.00
2022-12-29T12:07:13.317Z,840.00
2022-12-29T12:08:34.255Z,736.00
2022-12-29T12:09:13.183Z,780.00
2022-12-29T12:10:13.096Z,640.00
2022-12-29T12:11:13.013Z,516.00
2022-12-29T12:12:12.940Z,492.00
2022-12-29T12:13:12.845Z,604.00
2022-12-29T12:14:33.756Z,536.00
2022-12-29T12:15:13.693Z,480.00
2022-12-29T12:16:12.615Z,440.00
2022-12-29T12:17:12.524Z,412.00
2022-12-29T12:18:12.439Z,388.00
2022-12-29T12:19:12.354Z,372.00
2022-12-29T12:20:33.277Z,340.00
2022-12-29T12:21:12.205Z,312.00
2022-12-29T12:22:12.116Z,296.00
2022-12-29T12:23:12.048Z,272.00
2022-12-29T12:24:11.992Z,264.00
2022-12-29T12:25:11.887Z,340.00
2022-12-29T12:26:32.807Z,496.00
2022-12-29T12:27:13.128Z,492.00
2022-12-29T12:28:11.682Z,500.00
2022-12-29T12:29:11.570Z,608.00
2022-12-29T12:30:11.493Z,736.00
2022-12-29T12:31:11.446Z,556.00
2022-12-29T12:32:32.415Z,592.00
2022-12-29T12:33:11.244Z,596.00
2022-12-29T12:34:11.165Z,580.00
2022-12-29T12:35:12.088Z,580.00
2022-12-29T12:36:11.005Z,592.00
2022-12-29T12:37:10.919Z,544.00
2022-12-29T12:38:31.833Z,600.00
2022-12-29T12:39:10.776Z,528.00
2022-12-29T12:40:10.688Z,504.00
2022-12-29T12:41:10.617Z,512.00
2022-12-29T12:42:10.533Z,508.00
2022-12-29T12:43:10.445Z,508.00
2022-12-29T12:44:31.371Z,504.00
2022-12-29T12:45:10.300Z,460.00
2022-12-29T12:46:10.246Z,436.00
2022-12-29T12:47:10.134Z,404.00
2022-12-29T12:48:10.042Z,400.00
2022-12-29T12:49:09.958Z,376.00
2022-12-29T12:50:30.881Z,372.00
2022-12-29T12:51:09.814Z,344.00
2022-12-29T12:52:09.733Z,324.00
2022-12-29T12:53:09.719Z,312.00
2022-12-29T12:54:09.573Z,312.00
2022-12-29T12:55:09.507Z,372.00
2022-12-29T12:56:30.416Z,380.00